AYNZ/LAE METAR and TAF weather

Enter ICAO airport designator
Station Type Date Time Source
AYNZ METAR 2019/12/07 06:00 UTC NOAA

AYNZ 070600Z 05019KT 9999 FEW045 32/23 Q1005=


Station Type Date Time Source
AYNZ Decoded METAR 2019/12/07 06:00 UTC NOAA

Station name not available
Dec 07, 2019 - 01:00 AM EST / 2019.12.07 0600 UTC
Wind: from the NE (050 degrees) at 22 MPH (19 KT):0
Visibility: greater than 7 mile(s):0
Sky conditions: mostly clear
Temperature: 89 F (32 C)
Heat index: 96.8 F (36.0 C):1
Dew Point: 73 F (23 C)
Relative Humidity: 59%
Pressure (altimeter): 29.68 in. Hg (1005 hPa)
ob: AYNZ 070600Z 05019KT 9999 FEW045 32/23 Q1005=
cycle: 6

Station Type Date Time Source
AYNZ TAF 2015/08/19 08:15 UTC NOAA

TAF AYNZ 190550Z 1908/1920 09015KT 9999 SCT020 SCT120
FM191400 VRB03KT 9999 BKN040 Q 1011 1014 1013 1010

Example: see airport list